Time;durP1;ratioP1;P1;durP2;ratioP2;P2;SDS_P1;SDS_P2;PMS_P1;PMS_P2;Temp;Humidity;BMP_temperature;BMP_pressure;BME280_temperature;BME280_humidity;BME280_pressure;Samples;Min_cycle;Max_cycle;Signal;HPM_P1;HPM_P2
2021/05/30 00:01:01;;;;;;;0.30;0.30;;;;;;;16.66;46.77;97276.28;5074496;28;20032;-64
2021/05/30 00:03:27;;;;;;;0.38;0.38;;;;;;;16.72;46.48;97280.56;5073076;28;20032;-64
2021/05/30 00:05:53;;;;;;;0.17;0.17;;;;;;;16.74;46.43;97278.31;5073045;28;20419;-64
2021/05/30 00:08:19;;;;;;;0.10;0.10;;;;;;;16.79;46.54;97280.97;5073804;28;20090;-64
2021/05/30 00:10:44;;;;;;;0.20;0.20;;;;;;;16.83;46.50;97272.88;5055563;28;20044;-63
2021/05/30 00:13:11;;;;;;;0.38;0.38;;;;;;;16.87;46.68;97273.91;5073253;28;20024;-62
2021/05/30 00:15:37;;;;;;;0.73;0.73;;;;;;;16.84;46.53;97268.13;5072740;28;20535;-63
2021/05/30 00:18:03;;;;;;;0.60;0.60;;;;;;;16.80;46.52;97271.53;5073839;28;20029;-64
2021/05/30 00:20:30;;;;;;;0.30;0.30;;;;;;;16.81;46.71;97286.19;5072856;28;20164;-63
2021/05/30 00:22:55;;;;;;;0.30;0.30;;;;;;;16.84;46.92;97280.03;5072645;28;20470;-64
2021/05/30 00:25:22;;;;;;;0.57;0.55;;;;;;;16.95;46.59;97280.66;5073192;28;20028;-64
2021/05/30 00:27:47;;;;;;;0.65;0.65;;;;;;;17.23;46.26;97274.97;5074094;28;20448;-63
2021/05/30 00:30:14;;;;;;;0.20;0.20;;;;;;;18.03;44.52;97277.84;5073092;28;20028;-63
2021/05/30 00:32:40;;;;;;;0.10;0.10;;;;;;;20.06;40.92;97277.50;5073352;28;20085;-63
2021/05/30 00:35:06;;;;;;;0.30;0.15;;;;;;;22.12;37.45;97270.00;5054947;28;20028;-64
2021/05/30 00:37:32;;;;;;;0.17;0.17;;;;;;;23.82;35.03;97277.84;5072962;28;20028;-64
2021/05/30 00:39:57;;;;;;;0.15;0.15;;;;;;;25.32;33.29;97268.56;5073022;28;20036;-64
2021/05/30 00:42:23;;;;;;;0.13;0.13;;;;;;;26.44;32.30;97264.97;5055068;28;20036;-64
2021/05/30 00:44:49;;;;;;;0.15;0.15;;;;;;;27.35;31.69;97267.91;5074317;28;20525;-66
2021/05/30 00:47:15;;;;;;;0.13;0.13;;;;;;;28.25;30.83;97274.47;5072590;28;20069;-64
2021/05/30 00:49:41;;;;;;;1.80;0.20;;;;;;;29.02;30.22;97271.84;5054973;28;20033;-64
2021/05/30 00:52:07;;;;;;;0.28;0.28;;;;;;;29.73;30.05;97269.69;5074589;28;20075;-64
2021/05/30 00:54:38;;;;;;;0.25;0.25;;;;;;;30.53;29.36;97266.56;5054610;28;20051;-65
2021/05/30 00:57:08;;;;;;;0.17;0.17;;;;;;;31.25;29.01;97254.31;5072406;28;20040;-64
2021/05/30 00:59:34;;;;;;;8.38;1.08;;;;;;;31.86;28.59;97271.06;5073048;28;20424;-65
2021/05/30 01:02:00;;;;;;;0.40;0.40;;;;;;;32.35;28.22;97270.31;5073293;28;20025;-64
2021/05/30 01:04:27;;;;;;;0.17;0.17;;;;;;;32.84;27.93;97273.97;5072449;28;20112;-65
2021/05/30 01:06:57;;;;;;;0.10;0.10;;;;;;;33.13;28.20;97274.47;5072545;28;20041;-64
2021/05/30 01:09:25;;;;;;;0.10;0.10;;;;;;;33.27;28.27;97269.84;5074086;28;20032;-65
2021/05/30 01:11:52;;;;;;;0.22;0.22;;;;;;;33.41;28.31;97268.88;5072236;28;20033;-64
2021/05/30 01:14:18;;;;;;;2.28;0.28;;;;;;;33.51;28.56;97271.59;5054312;28;20489;-65
2021/05/30 01:16:44;;;;;;;0.22;0.22;;;;;;;33.62;28.55;97268.59;5038174;28;20039;-64
2021/05/30 01:19:12;;;;;;;2.65;0.22;;;;;;;33.91;28.17;97264.56;5073040;28;20043;-65
2021/05/30 01:21:38;;;;;;;0.17;0.17;;;;;;;34.29;27.73;97261.56;5072573;28;20119;-63
2021/05/30 01:24:05;;;;;;;0.55;0.30;;;;;;;34.71;27.44;97254.31;5072152;28;20115;-64
2021/05/30 01:26:30;;;;;;;0.20;0.20;;;;;;;35.18;26.90;97262.03;5073549;28;20032;-64
2021/05/30 01:28:56;;;;;;;0.10;0.10;;;;;;;35.52;26.63;97260.94;5071990;28;20028;-64
2021/05/30 01:31:23;;;;;;;0.13;0.13;;;;;;;35.82;26.58;97256.22;5072497;28;20032;-63
2021/05/30 01:33:49;;;;;;;0.30;0.30;;;;;;;35.96;26.82;97252.25;5072545;28;20033;-65
2021/05/30 01:36:15;;;;;;;0.20;0.20;;;;;;;36.33;26.20;97255.88;5073020;28;20486;-66
2021/05/30 01:38:41;;;;;;;0.10;0.10;;;;;;;36.80;25.82;97258.38;5072673;28;20039;-66
2021/05/30 01:41:07;;;;;;;0.35;0.35;;;;;;;37.25;24.95;97259.63;5072322;28;20051;-65
2021/05/30 01:43:33;;;;;;;0.10;0.10;;;;;;;37.70;24.71;97250.09;5073481;28;20029;-63
2021/05/30 01:45:59;;;;;;;0.20;0.20;;;;;;;38.04;24.68;97240.06;5074357;28;20043;-65
2021/05/30 01:48:26;;;;;;;0.40;0.40;;;;;;;38.42;24.42;97241.34;5075714;28;20032;-65
2021/05/30 01:50:52;;;;;;;0.80;0.38;;;;;;;38.82;23.99;97242.88;5058022;28;20494;-65
2021/05/30 01:53:19;;;;;;;0.20;0.20;;;;;;;39.25;23.87;97227.81;5076371;28;20031;-65
2021/05/30 01:56:55;;;;;;;1.50;0.60;;;;;;;39.68;23.18;97231.13;5057399;28;20099;-65
2021/05/30 01:58:40;;;;;;;1.17;0.30;;;;;;;40.09;23.18;97232.00;5075454;28;20445;-64
2021/05/30 02:01:10;;;;;;;0.28;0.28;;;;;;;40.60;22.70;97236.44;5076743;28;20036;-66
2021/05/30 02:03:36;;;;;;;0.30;0.25;;;;;;;41.29;22.08;97239.25;5075247;28;20447;-65
2021/05/30 02:06:03;;;;;;;0.10;0.10;;;;;;;42.03;21.53;97236.22;5075372;28;20041;-64
2021/05/30 02:08:31;;;;;;;0.10;0.10;;;;;;;42.45;21.29;97235.41;5042403;28;20044;-66
2021/05/30 02:10:58;;;;;;;0.30;0.30;;;;;;;42.62;21.35;97235.00;5057464;28;20033;-66
2021/05/30 02:13:27;;;;;;;0.32;0.32;;;;;;;42.73;21.23;97232.38;5075478;28;20032;-64
2021/05/30 02:15:53;;;;;;;0.38;0.35;;;;;;;42.77;21.28;97232.94;5075771;28;20061;-65
2021/05/30 02:18:19;;;;;;;1.05;0.82;;;;;;;42.85;21.49;97239.97;5075958;28;20033;-65
2021/05/30 02:20:45;;;;;;;0.25;0.25;;;;;;;42.96;21.48;97229.94;5075090;28;20056;-65
2021/05/30 02:23:14;;;;;;;0.60;0.45;;;;;;;43.02;21.17;97225.09;5075249;28;20141;-65
2021/05/30 02:25:41;;;;;;;0.10;0.10;;;;;;;42.97;21.23;97238.09;5076025;28;20197;-66
2021/05/30 02:28:07;;;;;;;0.30;0.30;;;;;;;42.92;21.64;97246.63;5075451;28;20406;-67
2021/05/30 02:30:32;;;;;;;0.30;0.30;;;;;;;43.04;21.34;97246.41;5074789;28;20039;-65
2021/05/30 02:32:58;;;;;;;0.10;0.10;;;;;;;43.23;21.34;97247.06;5075152;28;20393;-66
2021/05/30 02:35:24;;;;;;;1.13;0.30;;;;;;;43.31;20.96;97240.91;5076093;28;20533;-65
2021/05/30 02:37:50;;;;;;;0.55;0.55;;;;;;;43.38;20.99;97234.72;5074894;28;20107;-66
2021/05/30 02:40:16;;;;;;;0.63;0.63;;;;;;;43.48;21.27;97239.16;5074958;28;20086;-66
2021/05/30 02:42:42;;;;;;;0.95;0.52;;;;;;;43.71;20.92;97233.75;5057390;28;20032;-64
2021/05/30 02:45:08;;;;;;;1.90;1.20;;;;;;;44.04;20.30;97238.53;5075032;28;20024;-65
2021/05/30 02:47:35;;;;;;;2.85;0.82;;;;;;;44.29;20.33;97240.03;5074460;28;20035;-65
2021/05/30 02:50:01;;;;;;;0.60;0.60;;;;;;;44.62;19.87;97231.00;5074539;28;20032;-66
2021/05/30 02:52:27;;;;;;;0.55;0.55;;;;;;;45.07;19.56;97241.63;5076212;28;20496;-65
2021/05/30 02:54:53;;;;;;;1.67;0.52;;;;;;;45.14;19.85;97229.59;5074420;28;20206;-65
2021/05/30 02:57:19;;;;;;;0.50;0.50;;;;;;;45.04;19.75;97243.47;5074068;28;20062;-68
2021/05/30 02:59:45;;;;;;;1.08;0.65;;;;;;;44.82;20.08;97243.13;5075450;28;20119;-66
2021/05/30 03:02:11;;;;;;;0.40;0.40;;;;;;;44.14;20.24;97236.34;5075145;28;20431;-66
2021/05/30 03:04:37;;;;;;;0.40;0.40;;;;;;;43.36;20.95;97248.84;5074293;28;20024;-66
2021/05/30 03:07:03;;;;;;;0.20;0.20;;;;;;;43.16;21.42;97247.44;5074920;28;20037;-65
2021/05/30 03:09:28;;;;;;;0.30;0.30;;;;;;;43.43;20.84;97254.28;5075603;28;20035;-65
2021/05/30 03:11:54;;;;;;;0.73;0.73;;;;;;;43.28;21.29;97253.44;5056164;28;20035;-66
2021/05/30 03:14:20;;;;;;;1.23;0.52;;;;;;;43.34;20.89;97248.56;5074289;28;20024;-67
2021/05/30 03:16:46;;;;;;;0.20;0.20;;;;;;;43.37;20.82;97238.91;5075037;28;20120;-66
2021/05/30 03:19:12;;;;;;;1.75;1.08;;;;;;;43.17;21.05;97240.38;5056237;28;20043;-65
2021/05/30 03:21:41;;;;;;;7.78;0.82;;;;;;;43.46;20.44;97227.28;5073877;28;20086;-66
2021/05/30 03:24:09;;;;;;;0.47;0.47;;;;;;;43.27;20.85;97234.50;5074453;28;20085;-64
2021/05/30 03:26:35;;;;;;;0.43;0.43;;;;;;;42.34;21.47;97226.47;5057158;28;20478;-64
2021/05/30 03:29:01;;;;;;;0.75;0.75;;;;;;;41.64;22.11;97224.44;5073612;28;20560;-65
2021/05/30 03:31:27;;;;;;;0.98;0.70;;;;;;;41.25;22.53;97221.31;5073453;28;20115;-64
2021/05/30 03:33:52;;;;;;;0.95;0.40;;;;;;;41.63;21.96;97223.66;5074891;28;20035;-65
2021/05/30 03:36:22;;;;;;;4.75;1.15;;;;;;;42.10;21.17;97221.44;5074240;28;20036;-65
2021/05/30 03:38:48;;;;;;;0.63;0.35;;;;;;;42.54;20.73;97226.69;5073378;28;20028;-65
2021/05/30 03:41:16;;;;;;;0.60;0.60;;;;;;;42.33;20.88;97225.69;5073758;28;20036;-65
2021/05/30 03:43:42;;;;;;;0.57;0.55;;;;;;;42.82;20.54;97217.06;5074265;28;20032;-65
2021/05/30 03:46:08;;;;;;;0.70;0.70;;;;;;;43.28;19.86;97221.66;5073814;28;20039;-65
2021/05/30 03:48:34;;;;;;;1.90;1.42;;;;;;;43.01;20.15;97209.88;5073819;28;20033;-66
2021/05/30 03:51:00;;;;;;;0.35;0.35;;;;;;;42.08;20.99;97206.72;5074083;28;20062;-66
2021/05/30 03:53:26;;;;;;;1.15;0.32;;;;;;;41.44;21.49;97199.88;5073410;28;20029;-65
2021/05/30 03:55:52;;;;;;;0.65;0.50;;;;;;;41.01;21.85;97181.69;5055547;28;20032;-65
2021/05/30 03:58:19;;;;;;;0.10;0.10;;;;;;;40.63;22.00;97175.09;5055944;28;20025;-65
2021/05/30 04:00:45;;;;;;;7.32;1.00;;;;;;;40.11;22.52;97177.69;5073037;28;20063;-66
2021/05/30 04:03:11;;;;;;;0.50;0.50;;;;;;;39.28;22.88;97170.72;5073413;28;20052;-67
2021/05/30 04:05:37;;;;;;;0.20;0.20;;;;;;;38.52;23.65;97179.97;5060908;28;20393;-67
2021/05/30 04:08:03;;;;;;;0.32;0.32;;;;;;;38.19;23.63;97176.59;5073683;28;20028;-67
2021/05/30 04:10:29;;;;;;;0.28;0.28;;;;;;;38.36;23.52;97185.84;5072986;28;20036;-66
2021/05/30 04:12:55;;;;;;;0.10;0.10;;;;;;;38.73;23.08;97178.41;5072802;28;20032;-65
2021/05/30 04:15:21;;;;;;;0.28;0.28;;;;;;;39.36;22.19;97180.66;5073325;28;20108;-66
2021/05/30 04:17:47;;;;;;;0.10;0.10;;;;;;;40.03;21.43;97175.59;5074858;28;20119;-66
2021/05/30 04:20:20;;;;;;;0.43;0.43;;;;;;;40.09;21.29;97165.88;5073013;28;20032;-66
2021/05/30 04:22:46;;;;;;;0.43;0.32;;;;;;;40.09;21.46;97177.38;5072724;28;20413;-67
2021/05/30 04:25:16;;;;;;;0.55;0.20;;;;;;;39.95;21.34;97154.94;5073061;28;20047;-68
2021/05/30 04:27:42;;;;;;;1.23;0.45;;;;;;;39.92;21.44;97165.31;5072908;28;20132;-66
2021/05/30 04:30:10;;;;;;;0.20;0.20;;;;;;;39.90;21.31;97146.94;5072939;28;20536;-67
2021/05/30 04:32:38;;;;;;;0.10;0.10;;;;;;;39.11;21.95;97147.97;5073093;28;20083;-66
2021/05/30 04:35:05;;;;;;;0.30;0.30;;;;;;;38.26;22.92;97146.91;5074157;28;20526;-65
2021/05/30 04:37:31;;;;;;;0.30;0.30;;;;;;;37.74;23.07;97149.81;5073077;28;20490;-66
2021/05/30 04:39:57;;;;;;;0.22;0.22;;;;;;;36.87;24.02;97143.00;5072830;28;20082;-66
2021/05/30 04:42:23;;;;;;;0.30;0.30;;;;;;;36.58;24.10;97138.03;5073744;28;20071;-65
2021/05/30 04:44:49;;;;;;;0.50;0.28;;;;;;;36.58;24.13;97155.19;5072922;28;20052;-65
2021/05/30 04:47:15;;;;;;;0.75;0.20;;;;;;;36.72;23.66;97153.19;5072668;28;20040;-66
2021/05/30 04:49:41;;;;;;;0.43;0.32;;;;;;;37.50;22.45;97152.97;5072693;28;20028;-68
2021/05/30 04:52:10;;;;;;;0.15;0.15;;;;;;;38.50;21.65;97142.38;5073605;28;20607;-65
2021/05/30 04:54:36;;;;;;;0.32;0.30;;;;;;;39.37;20.48;97153.53;5072332;28;20099;-65
2021/05/30 04:57:03;;;;;;;0.20;0.20;;;;;;;40.14;19.98;97140.63;5072554;28;20043;-67
2021/05/30 04:59:29;;;;;;;0.10;0.10;;;;;;;40.58;19.96;97146.16;5073284;28;20029;-65
2021/05/30 05:01:55;;;;;;;0.10;0.10;;;;;;;40.72;19.44;97139.78;5072656;28;20082;-67
2021/05/30 05:04:21;;;;;;;0.10;0.10;;;;;;;41.04;19.31;97143.28;5072539;28;20520;-68
2021/05/30 05:06:47;;;;;;;0.30;0.30;;;;;;;41.35;19.30;97145.19;5071819;28;20044;-67
2021/05/30 05:09:13;;;;;;;0.15;0.15;;;;;;;41.49;19.09;97135.03;5073033;28;20139;-67
2021/05/30 05:11:39;;;;;;;0.10;0.10;;;;;;;41.53;19.00;97138.56;5072403;28;20029;-66
2021/05/30 05:14:04;;;;;;;0.20;0.20;;;;;;;41.64;19.03;97129.38;5070783;28;20035;-66
2021/05/30 05:16:30;;;;;;;0.25;0.25;;;;;;;41.38;19.42;97124.06;5071736;28;20028;-66
2021/05/30 05:18:57;;;;;;;0.10;0.10;;;;;;;40.91;19.94;97111.81;5075224;28;20025;-67
2021/05/30 05:21:23;;;;;;;0.22;0.22;;;;;;;41.11;19.61;97108.41;5073471;28;20498;-67
2021/05/30 05:23:48;;;;;;;0.20;0.20;;;;;;;40.14;20.77;97100.41;5092839;28;20039;-68
2021/05/30 05:26:14;;;;;;;0.10;0.10;;;;;;;38.50;22.43;97096.47;5093240;28;20047;-67
2021/05/30 05:28:40;;;;;;;0.50;0.50;;;;;;;37.13;23.65;97100.94;5093226;28;20020;-68
2021/05/30 05:31:06;;;;;;;0.28;0.20;;;;;;;35.84;24.62;97101.59;5092580;28;20032;-66
2021/05/30 05:33:32;;;;;;;1.05;0.95;;;;;;;34.71;25.58;97091.84;5076707;28;20124;-65
2021/05/30 05:35:57;;;;;;;0.10;0.10;;;;;;;34.41;25.58;97090.03;5072963;28;20119;-65
2021/05/30 05:38:23;;;;;;;0.17;0.17;;;;;;;34.24;25.38;97097.63;5073200;28;20048;-68
2021/05/30 05:40:49;;;;;;;0.38;0.32;;;;;;;34.02;25.49;97097.22;5077119;28;20089;-67
2021/05/30 05:43:15;;;;;;;1.08;0.25;;;;;;;33.98;25.22;97096.47;5074616;28;20028;-63
2021/05/30 05:45:41;;;;;;;0.22;0.13;;;;;;;34.31;24.61;97099.59;5074650;28;20521;-64
2021/05/30 05:48:11;;;;;;;0.15;0.15;;;;;;;35.03;23.79;97089.59;5075245;28;20453;-63
2021/05/30 05:50:37;;;;;;;2.72;0.35;;;;;;;35.22;23.33;97103.00;5076560;28;20040;-62
2021/05/30 05:53:03;;;;;;;0.38;0.38;;;;;;;35.01;23.20;97097.78;5075676;28;20457;-64
2021/05/30 05:55:29;;;;;;;0.45;0.45;;;;;;;34.90;23.63;97098.81;5075371;28;20040;-63
2021/05/30 05:57:55;;;;;;;1.17;0.63;;;;;;;34.89;23.67;97093.53;5074161;28;20032;-64
2021/05/30 06:00:22;;;;;;;1.92;0.65;;;;;;;34.95;23.38;97082.44;5074738;28;20089;-63
2021/05/30 06:02:50;;;;;;;1.88;0.32;;;;;;;34.80;23.46;97085.59;5075228;28;20109;-64
2021/05/30 06:05:18;;;;;;;0.10;0.10;;;;;;;34.40;23.95;97082.72;5074888;28;20060;-65
2021/05/30 06:07:48;;;;;;;0.20;0.20;;;;;;;34.08;23.94;97071.91;5076437;28;20143;-67
2021/05/30 06:10:16;;;;;;;0.25;0.25;;;;;;;34.05;23.94;97067.88;5075329;28;20127;-67
2021/05/30 06:12:42;;;;;;;0.20;0.20;;;;;;;34.00;24.25;97068.38;5075311;28;20143;-69
2021/05/30 06:15:09;;;;;;;0.20;0.20;;;;;;;34.02;24.14;97074.44;5075743;28;20055;-67
2021/05/30 06:17:36;;;;;;;0.40;0.40;;;;;;;33.72;24.16;97070.47;5075544;28;20028;-66
2021/05/30 06:20:04;;;;;;;0.25;0.25;;;;;;;33.53;24.32;97069.16;5075051;28;20115;-66
2021/05/30 06:22:31;;;;;;;0.10;0.10;;;;;;;33.41;24.59;97076.25;5074953;28;20024;-67
2021/05/30 06:24:57;;;;;;;0.10;0.10;;;;;;;33.07;24.79;97077.13;5057886;28;20043;-65
2021/05/30 06:27:23;;;;;;;0.00;0.00;;;;;;;32.71;25.35;97074.75;5073381;28;20036;-68
2021/05/30 06:29:49;;;;;;;0.10;0.10;;;;;;;32.35;25.60;97075.16;5075094;28;20052;-68
2021/05/30 06:32:15;;;;;;;0.17;0.17;;;;;;;31.94;25.92;97071.09;5071191;28;20502;-68
2021/05/30 06:34:41;;;;;;;0.10;0.10;;;;;;;31.54;26.20;97075.47;5083749;28;20031;-67
2021/05/30 06:37:07;;;;;;;0.10;0.10;;;;;;;31.18;26.38;97085.03;5072789;28;20116;-68
2021/05/30 06:39:33;;;;;;;0.10;0.10;;;;;;;30.82;26.70;97081.59;5038151;28;20078;-68
2021/05/30 06:41:59;;;;;;;0.10;0.10;;;;;;;30.48;26.97;97085.75;5073910;28;20040;-70
2021/05/30 06:44:24;;;;;;;0.03;0.03;;;;;;;30.26;26.91;97073.66;5071904;28;20108;-70
2021/05/30 06:46:50;;;;;;;0.00;0.00;;;;;;;30.12;26.97;97076.53;5069064;28;20043;-66
2021/05/30 06:49:16;;;;;;;0.10;0.10;;;;;;;29.98;27.04;97083.03;5069694;28;20032;-62
2021/05/30 06:51:42;;;;;;;0.10;0.10;;;;;;;29.86;27.09;97075.78;5071415;28;20040;-64
2021/05/30 06:54:09;;;;;;;0.08;0.08;;;;;;;29.86;26.73;97070.13;5053984;28;20051;-62
2021/05/30 06:56:36;;;;;;;0.10;0.10;;;;;;;29.95;26.60;97058.38;5075816;28;20031;-65
2021/05/30 06:59:02;;;;;;;1.00;0.20;;;;;;;30.09;26.14;97066.03;5085609;28;20097;-63
2021/05/30 07:01:28;;;;;;;0.10;0.10;;;;;;;30.05;26.42;97066.03;5061531;28;20032;-63
2021/05/30 07:03:54;;;;;;;0.00;0.00;;;;;;;29.93;26.47;97064.41;5057047;28;20062;-62
2021/05/30 07:06:22;;;;;;;0.10;0.10;;;;;;;29.93;26.47;97067.25;5071825;28;20060;-63
2021/05/30 07:08:49;;;;;;;0.28;0.20;;;;;;;29.96;26.08;97052.31;5064614;28;20075;-62
2021/05/30 07:11:15;;;;;;;0.10;0.10;;;;;;;30.02;26.12;97055.50;5075301;28;20048;-66
2021/05/30 07:13:41;;;;;;;0.00;0.00;;;;;;;30.05;26.19;97060.38;5037201;28;20044;-64
2021/05/30 07:16:07;;;;;;;0.30;0.30;;;;;;;30.07;26.19;97065.63;5072651;28;20044;-63
2021/05/30 07:18:33;;;;;;;0.08;0.03;;;;;;;30.10;26.41;97050.66;5071118;28;20059;-59
2021/05/30 07:20:59;;;;;;;0.00;0.00;;;;;;;30.19;25.91;97048.22;5071267;28;20029;-63
2021/05/30 07:23:25;;;;;;;0.10;0.10;;;;;;;30.17;25.84;97045.00;5072336;28;20535;-62
2021/05/30 07:25:52;;;;;;;0.00;0.00;;;;;;;30.07;26.15;97043.78;5082911;28;20032;-64
2021/05/30 07:28:19;;;;;;;0.13;0.13;;;;;;;30.14;26.01;97049.44;5088591;28;20044;-64
2021/05/30 07:30:46;;;;;;;0.17;0.17;;;;;;;30.38;25.65;97055.44;5070948;28;20127;-61
2021/05/30 07:33:12;;;;;;;0.10;0.10;;;;;;;30.78;25.36;97055.28;5071887;28;20111;-68
2021/05/30 07:35:38;;;;;;;0.00;0.00;;;;;;;31.08;24.97;97049.06;5071420;28;20421;-63
2021/05/30 07:38:05;;;;;;;0.10;0.10;;;;;;;31.06;25.11;97049.47;5082442;28;20024;-65
2021/05/30 07:40:32;;;;;;;0.10;0.10;;;;;;;30.90;25.40;97049.97;5073710;28;20089;-64
2021/05/30 07:42:59;;;;;;;0.10;0.10;;;;;;;30.68;25.58;97049.28;5069551;28;20031;-62
2021/05/30 07:45:26;;;;;;;0.10;0.10;;;;;;;30.46;25.77;97036.41;5080364;28;20119;-65
2021/05/30 07:47:52;;;;;;;0.08;0.08;;;;;;;30.20;26.14;97047.00;5090830;28;20030;-63
2021/05/30 07:50:19;;;;;;;0.10;0.10;;;;;;;30.12;26.40;97045.41;5071815;28;20043;-63
2021/05/30 07:52:45;;;;;;;0.10;0.10;;;;;;;30.17;25.98;97045.78;5070884;28;20131;-61
2021/05/30 07:55:11;;;;;;;0.10;0.10;;;;;;;30.23;26.14;97049.00;5070162;28;20063;-62
2021/05/30 07:57:37;;;;;;;0.10;0.10;;;;;;;30.25;26.24;97040.91;5071901;28;20521;-62
2021/05/30 08:00:10;;;;;;;0.10;0.10;;;;;;;30.25;26.19;97040.91;5052644;28;20036;-63
2021/05/30 08:02:36;;;;;;;0.10;0.10;;;;;;;30.30;26.02;97048.16;5070199;28;20108;-63
2021/05/30 08:05:04;;;;;;;0.20;0.20;;;;;;;30.40;25.98;97047.31;5070485;28;20071;-62
2021/05/30 08:07:29;;;;;;;0.10;0.10;;;;;;;30.50;25.87;97046.50;5055750;28;20058;-62
2021/05/30 08:09:55;;;;;;;0.57;0.20;;;;;;;30.57;25.73;97049.31;5090549;28;20038;-63
2021/05/30 08:12:21;;;;;;;0.10;0.10;;;;;;;30.56;26.08;97032.72;5088646;28;20028;-62
2021/05/30 08:14:47;;;;;;;0.65;0.25;;;;;;;30.50;25.91;97037.22;5070523;28;20040;-71
2021/05/30 08:17:12;;;;;;;0.00;0.00;;;;;;;30.40;26.08;97047.31;5081599;28;20039;-65
2021/05/30 08:19:38;;;;;;;0.05;0.05;;;;;;;30.30;26.04;97048.16;5087661;28;20066;-63
2021/05/30 08:22:05;;;;;;;0.10;0.10;;;;;;;30.20;26.40;97044.16;5087931;28;20043;-62
2021/05/30 08:24:31;;;;;;;0.00;0.00;;;;;;;30.22;26.41;97045.34;5069423;28;20429;-63
2021/05/30 08:26:57;;;;;;;0.00;0.00;;;;;;;30.23;26.47;97046.19;5075971;28;20071;-62
2021/05/30 08:29:24;;;;;;;0.10;0.10;;;;;;;30.08;26.47;97053.91;5063197;28;20102;-65
2021/05/30 08:31:53;;;;;;;0.08;0.08;;;;;;;29.94;26.67;97039.78;5064453;28;20115;-65
2021/05/30 08:34:20;;;;;;;0.05;0.05;;;;;;;29.93;26.86;97038.16;5090793;28;20027;-64
2021/05/30 08:36:47;;;;;;;0.10;0.10;;;;;;;29.99;26.70;97034.53;5090010;28;20024;-60
2021/05/30 08:39:13;;;;;;;0.28;0.20;;;;;;;30.12;26.63;97042.56;5087183;28;20403;-61
2021/05/30 08:41:40;;;;;;;0.10;0.10;;;;;;;30.32;26.24;97042.91;5091353;28;20027;-61
2021/05/30 08:44:06;;;;;;;0.00;0.00;;;;;;;30.42;26.08;97035.63;5085424;28;20032;-61
2021/05/30 08:46:32;;;;;;;0.10;0.10;;;;;;;30.17;26.56;97045.00;5070561;28;20124;-64
2021/05/30 08:48:58;;;;;;;0.10;0.10;;;;;;;29.91;26.87;97043.44;5070220;28;20042;-65
2021/05/30 08:51:25;;;;;;;0.47;0.47;;;;;;;29.81;27.10;97036.53;5070043;28;20029;-64
2021/05/30 08:53:51;;;;;;;0.10;0.10;;;;;;;29.85;27.08;97026.84;5061520;28;20051;-64
2021/05/30 08:56:17;;;;;;;0.20;0.20;;;;;;;29.95;26.80;97032.91;5070967;28;20028;-65
2021/05/30 08:58:45;;;;;;;0.10;0.10;;;;;;;30.11;26.69;97026.78;5054446;28;20578;-67
2021/05/30 09:01:14;;;;;;;0.00;0.00;;;;;;;30.25;26.51;97025.97;5073251;28;20028;-63
2021/05/30 09:04:06;;;;;;;0.10;0.10;;;;;;;30.07;26.55;97012.66;5069624;28;20352;-66
2021/05/30 09:06:34;;;;;;;0.05;0.05;;;;;;;29.83;26.94;97019.97;5075963;28;20052;-63
2021/05/30 09:09:01;;;;;;;0.10;0.10;;;;;;;29.76;26.94;97031.31;5070400;28;20090;-65
2021/05/30 09:11:45;;;;;;;0.00;0.00;;;;;;;29.95;26.79;97028.06;5070123;28;20445;-64
2021/05/30 09:14:18;;;;;;;0.10;0.10;;;;;;;30.15;26.49;97024.75;5068188;28;20029;-65
2021/05/30 09:16:55;;;;;;;0.38;0.30;;;;;;;30.19;26.24;97019.91;5077331;28;20032;-66
2021/05/30 09:19:41;;;;;;;0.00;0.00;;;;;;;30.04;26.36;97019.94;5068022;28;20464;-64
2021/05/30 09:22:20;;;;;;;0.17;0.17;;;;;;;29.83;26.87;97012.31;5077084;28;20119;-64
2021/05/30 09:25:19;;;;;;;0.00;0.00;;;;;;;29.64;26.92;97019.19;5089751;28;20028;-66
2021/05/30 09:27:54;;;;;;;0.10;0.10;;;;;;;29.66;27.11;97007.47;5089903;28;20493;-65
2021/05/30 09:30:22;;;;;;;0.00;0.00;;;;;;;29.82;26.79;97024.84;5089481;28;20142;-63
2021/05/30 09:32:56;;;;;;;0.10;0.10;;;;;;;29.98;26.45;97017.97;5089933;28;20031;-61
2021/05/30 09:35:24;;;;;;;0.05;0.05;;;;;;;30.07;26.20;97018.31;5089887;28;20515;-62
2021/05/30 09:38:03;;;;;;;0.00;0.00;;;;;;;30.13;26.29;97021.56;5077532;28;20037;-64
2021/05/30 09:40:39;;;;;;;0.10;0.10;;;;;;;30.21;26.05;97026.78;5069129;28;20028;-64
2021/05/30 09:43:10;;;;;;;0.10;0.10;;;;;;;30.38;25.99;97019.41;5068950;28;20094;-63
2021/05/30 09:45:38;;;;;;;0.08;0.08;;;;;;;30.49;25.91;97027.91;5055062;28;20072;-64
2021/05/30 09:48:13;;;;;;;0.10;0.10;;;;;;;30.43;25.81;97028.75;5071572;28;20397;-64
2021/05/30 09:50:39;;;;;;;0.00;0.00;;;;;;;30.36;26.11;97038.84;5071263;28;20428;-63
2021/05/30 09:53:07;;;;;;;0.05;0.05;;;;;;;30.31;26.27;97032.81;5088846;28;20032;-64
2021/05/30 09:55:32;;;;;;;0.15;0.10;;;;;;;30.23;26.17;97046.19;5071144;28;20544;-63
2021/05/30 09:58:14;;;;;;;0.30;0.20;;;;;;;30.27;26.21;97030.00;5089235;28;20066;-64
2021/05/30 10:00:41;;;;;;;0.20;0.20;;;;;;;30.27;26.25;97032.84;5072016;28;20547;-65
2021/05/30 10:03:07;;;;;;;0.03;0.03;;;;;;;30.19;26.41;97039.72;5085331;28;20033;-63
2021/05/30 10:05:34;;;;;;;0.20;0.20;;;;;;;30.13;26.32;97042.16;5069368;28;20051;-66
2021/05/30 10:08:00;;;;;;;0.68;0.32;;;;;;;30.09;26.61;97032.06;5070343;28;20036;-62
2021/05/30 10:10:27;;;;;;;0.10;0.10;;;;;;;30.19;26.34;97034.06;5073073;28;20087;-61
2021/05/30 10:12:53;;;;;;;0.00;0.00;;;;;;;30.44;26.16;97031.16;5072852;28;20485;-61
2021/05/30 10:15:20;;;;;;;0.10;0.10;;;;;;;30.67;26.04;97025.00;5073007;28;20410;-63
2021/05/30 10:17:47;;;;;;;0.00;0.00;;;;;;;30.97;25.43;97025.63;5072380;28;20036;-62
2021/05/30 10:20:19;;;;;;;0.30;0.30;;;;;;;31.17;25.35;97020.25;5072146;28;20490;-64
2021/05/30 10:22:50;;;;;;;0.10;0.10;;;;;;;31.36;25.13;97021.72;5069350;28;20157;-63
2021/05/30 10:25:24;;;;;;;0.40;0.38;;;;;;;31.40;25.23;97025.34;5079792;28;20135;-62
2021/05/30 10:28:11;;;;;;;0.22;0.22;;;;;;;31.28;25.41;97021.78;5072644;28;20029;-66
2021/05/30 10:30:39;;;;;;;0.20;0.20;;;;;;;30.96;25.66;97021.19;5072615;28;20037;-66
2021/05/30 10:33:24;;;;;;;0.30;0.10;;;;;;;30.72;26.17;97030.22;5072627;28;20028;-64
2021/05/30 10:35:53;;;;;;;0.08;0.08;;;;;;;30.48;26.35;97026.28;5072789;28;20032;-67
2021/05/30 10:38:41;;;;;;;0.10;0.10;;;;;;;30.43;26.49;97025.91;5054343;28;20082;-64
2021/05/30 10:41:22;;;;;;;0.10;0.10;;;;;;;30.44;26.63;97031.16;5073070;28;20031;-65
2021/05/30 10:43:48;;;;;;;0.10;0.10;;;;;;;30.53;26.44;97044.88;5085421;28;20035;-66
2021/05/30 10:46:14;;;;;;;0.20;0.20;;;;;;;30.54;26.49;97038.00;5072322;28;20064;-65
2021/05/30 10:48:41;;;;;;;0.35;0.30;;;;;;;30.60;26.30;97036.34;5071801;28;20091;-66
2021/05/30 10:53:47;;;;;;;0.20;0.20;;;;;;;30.30;26.66;97034.84;5054623;28;20036;-65
2021/05/30 10:56:26;;;;;;;0.10;0.10;;;;;;;30.12;27.12;97028.41;5071963;28;20036;-66
2021/05/30 10:59:03;;;;;;;0.28;0.10;;;;;;;29.93;27.35;97019.16;5072053;28;20071;-64
2021/05/30 11:01:35;;;;;;;0.10;0.10;;;;;;;29.82;27.40;97024.84;5084145;28;20035;-68
2021/05/30 11:04:38;;;;;;;0.10;0.10;;;;;;;29.78;27.48;97029.66;5087536;28;20372;-67
2021/05/30 11:07:19;;;;;;;0.10;0.10;;;;;;;29.83;27.45;97025.63;5087582;28;20056;-66
2021/05/30 11:10:09;;;;;;;0.52;0.20;;;;;;;29.80;27.58;97026.44;5087577;28;20028;-68
2021/05/30 11:12:48;;;;;;;0.10;0.10;;;;;;;29.68;27.69;97022.81;5083730;28;20461;-66
2021/05/30 11:15:18;;;;;;;0.10;0.10;;;;;;;29.52;27.82;97017.59;5087872;28;20093;-65
2021/05/30 11:17:51;;;;;;;0.00;0.00;;;;;;;29.38;27.71;97023.25;5086285;28;20032;-63
2021/05/30 11:20:22;;;;;;;;;;;;;;;29.30;28.11;97024.44;5087723;28;20039;-64
2021/05/30 11:22:56;;;;;;;0.10;0.10;;;;;;;29.26;27.94;97027.28;5087031;28;19962;-62
2021/05/30 11:25:30;;;;;;;0.00;0.00;;;;;;;29.15;28.18;97040.56;5087167;28;20544;-64
2021/05/30 11:28:04;;;;;;;0.10;0.10;;;;;;;28.95;28.43;97035.28;5086307;28;20040;-64
2021/05/30 11:31:00;;;;;;;0.00;0.00;;;;;;;28.63;28.47;97041.66;5087509;28;20047;-63
2021/05/30 11:33:25;;;;;;;0.10;0.10;;;;;;;28.51;28.91;97044.00;5087186;28;20405;-64
2021/05/30 11:36:03;;;;;;;0.10;0.10;;;;;;;28.49;28.74;97027.47;5085651;28;20035;-63
2021/05/30 11:38:54;;;;;;;0.05;0.05;;;;;;;28.40;29.01;97027.00;5087106;28;20094;-63
2021/05/30 11:41:23;;;;;;;0.10;0.10;;;;;;;28.35;29.02;97025.38;5087219;28;20115;-63